sensor_id;sensor_type;location;lat;lon;timestamp;P1;durP1;ratioP1;P2;durP2;ratioP2
55700;SDS011;41604;43.142;20.512;2024-03-08T00:02:16;18.63;;;11.43;;
55700;SDS011;41604;43.142;20.512;2024-03-08T00:04:42;25.27;;;15.35;;
55700;SDS011;41604;43.142;20.512;2024-03-08T00:07:10;59.22;;;31.75;;
55700;SDS011;41604;43.142;20.512;2024-03-08T00:09:35;78.00;;;45.10;;
55700;SDS011;41604;43.142;20.512;2024-03-08T00:12:01;57.35;;;32.10;;
55700;SDS011;41604;43.142;20.512;2024-03-08T00:14:27;47.33;;;28.52;;
55700;SDS011;41604;43.142;20.512;2024-03-08T00:16:53;40.25;;;24.73;;
55700;SDS011;41604;43.142;20.512;2024-03-08T00:19:19;76.65;;;43.22;;
55700;SDS011;41604;43.142;20.512;2024-03-08T00:21:45;29.58;;;18.52;;
55700;SDS011;41604;43.142;20.512;2024-03-08T00:24:11;74.05;;;39.92;;
55700;SDS011;41604;43.142;20.512;2024-03-08T00:26:37;20.95;;;13.82;;
55700;SDS011;41604;43.142;20.512;2024-03-08T00:29:03;18.17;;;12.40;;
55700;SDS011;41604;43.142;20.512;2024-03-08T00:31:29;22.77;;;14.48;;
55700;SDS011;41604;43.142;20.512;2024-03-08T00:33:56;19.80;;;13.55;;
55700;SDS011;41604;43.142;20.512;2024-03-08T00:36:22;22.75;;;14.93;;
55700;SDS011;41604;43.142;20.512;2024-03-08T00:38:48;23.15;;;16.38;;
55700;SDS011;41604;43.142;20.512;2024-03-08T00:41:14;27.90;;;17.40;;
55700;SDS011;41604;43.142;20.512;2024-03-08T00:43:40;27.85;;;18.92;;
55700;SDS011;41604;43.142;20.512;2024-03-08T00:46:06;34.40;;;23.33;;
55700;SDS011;41604;43.142;20.512;2024-03-08T00:48:32;20.20;;;13.18;;
55700;SDS011;41604;43.142;20.512;2024-03-08T00:50:57;24.98;;;16.83;;
55700;SDS011;41604;43.142;20.512;2024-03-08T00:53:23;30.02;;;20.30;;
55700;SDS011;41604;43.142;20.512;2024-03-08T00:55:49;41.75;;;33.40;;
55700;SDS011;41604;43.142;20.512;2024-03-08T00:58:15;33.78;;;28.08;;
55700;SDS011;41604;43.142;20.512;2024-03-08T01:00:41;34.38;;;27.27;;
55700;SDS011;41604;43.142;20.512;2024-03-08T01:03:07;23.27;;;16.73;;
55700;SDS011;41604;43.142;20.512;2024-03-08T01:05:33;20.35;;;13.02;;
55700;SDS011;41604;43.142;20.512;2024-03-08T01:08:00;16.88;;;11.50;;
55700;SDS011;41604;43.142;20.512;2024-03-08T01:10:28;16.05;;;11.50;;
55700;SDS011;41604;43.142;20.512;2024-03-08T01:12:54;15.70;;;10.70;;
55700;SDS011;41604;43.142;20.512;2024-03-08T01:15:22;18.35;;;14.05;;
55700;SDS011;41604;43.142;20.512;2024-03-08T01:17:48;19.05;;;12.25;;
55700;SDS011;41604;43.142;20.512;2024-03-08T01:20:15;21.88;;;13.63;;
55700;SDS011;41604;43.142;20.512;2024-03-08T01:22:41;21.63;;;14.52;;
55700;SDS011;41604;43.142;20.512;2024-03-08T01:25:07;21.10;;;14.55;;
55700;SDS011;41604;43.142;20.512;2024-03-08T01:27:33;19.80;;;13.88;;
55700;SDS011;41604;43.142;20.512;2024-03-08T01:30:00;21.55;;;15.82;;
55700;SDS011;41604;43.142;20.512;2024-03-08T01:32:26;19.15;;;13.02;;
55700;SDS011;41604;43.142;20.512;2024-03-08T01:34:52;21.85;;;13.98;;
55700;SDS011;41604;43.142;20.512;2024-03-08T01:37:18;16.42;;;10.52;;
55700;SDS011;41604;43.142;20.512;2024-03-08T01:39:45;18.20;;;11.07;;
55700;SDS011;41604;43.142;20.512;2024-03-08T01:42:10;16.15;;;10.27;;
55700;SDS011;41604;43.142;20.512;2024-03-08T01:44:38;16.05;;;10.00;;
55700;SDS011;41604;43.142;20.512;2024-03-08T01:47:04;13.38;;;9.27;;
55700;SDS011;41604;43.142;20.512;2024-03-08T01:49:31;16.70;;;9.85;;
55700;SDS011;41604;43.142;20.512;2024-03-08T01:51:56;13.35;;;8.77;;
55700;SDS011;41604;43.142;20.512;2024-03-08T01:54:22;14.90;;;9.85;;
55700;SDS011;41604;43.142;20.512;2024-03-08T01:56:49;13.63;;;8.13;;
55700;SDS011;41604;43.142;20.512;2024-03-08T01:59:15;13.07;;;8.77;;
55700;SDS011;41604;43.142;20.512;2024-03-08T02:01:42;12.70;;;7.63;;
55700;SDS011;41604;43.142;20.512;2024-03-08T02:04:08;12.23;;;7.45;;
55700;SDS011;41604;43.142;20.512;2024-03-08T02:06:34;12.15;;;6.75;;
55700;SDS011;41604;43.142;20.512;2024-03-08T02:09:00;11.55;;;7.38;;
55700;SDS011;41604;43.142;20.512;2024-03-08T02:11:31;13.90;;;8.45;;
55700;SDS011;41604;43.142;20.512;2024-03-08T02:13:58;13.43;;;8.43;;
55700;SDS011;41604;43.142;20.512;2024-03-08T02:16:24;10.48;;;7.20;;
55700;SDS011;41604;43.142;20.512;2024-03-08T02:18:50;30.25;;;16.25;;
55700;SDS011;41604;43.142;20.512;2024-03-08T02:21:16;34.53;;;18.35;;
55700;SDS011;41604;43.142;20.512;2024-03-08T02:23:43;39.95;;;20.85;;
55700;SDS011;41604;43.142;20.512;2024-03-08T02:26:09;30.42;;;15.25;;
55700;SDS011;41604;43.142;20.512;2024-03-08T02:28:35;19.42;;;11.32;;
55700;SDS011;41604;43.142;20.512;2024-03-08T02:31:02;19.58;;;11.65;;
55700;SDS011;41604;43.142;20.512;2024-03-08T02:33:33;15.77;;;9.48;;
55700;SDS011;41604;43.142;20.512;2024-03-08T02:35:59;16.05;;;9.77;;
55700;SDS011;41604;43.142;20.512;2024-03-08T02:38:25;17.45;;;10.82;;
55700;SDS011;41604;43.142;20.512;2024-03-08T02:40:51;15.60;;;10.43;;
55700;SDS011;41604;43.142;20.512;2024-03-08T02:43:19;17.10;;;9.63;;
55700;SDS011;41604;43.142;20.512;2024-03-08T02:45:49;14.73;;;9.70;;
55700;SDS011;41604;43.142;20.512;2024-03-08T02:48:17;13.55;;;8.90;;
55700;SDS011;41604;43.142;20.512;2024-03-08T02:50:44;73.28;;;44.55;;
55700;SDS011;41604;43.142;20.512;2024-03-08T02:53:10;60.03;;;38.08;;
55700;SDS011;41604;43.142;20.512;2024-03-08T02:55:40;40.97;;;26.15;;
55700;SDS011;41604;43.142;20.512;2024-03-08T02:58:07;21.15;;;11.90;;
55700;SDS011;41604;43.142;20.512;2024-03-08T03:00:37;20.63;;;13.00;;
55700;SDS011;41604;43.142;20.512;2024-03-08T03:03:06;27.48;;;15.52;;
55700;SDS011;41604;43.142;20.512;2024-03-08T03:05:32;23.52;;;14.60;;
55700;SDS011;41604;43.142;20.512;2024-03-08T03:08:01;31.90;;;23.27;;
55700;SDS011;41604;43.142;20.512;2024-03-08T03:10:29;16.35;;;11.95;;
55700;SDS011;41604;43.142;20.512;2024-03-08T03:12:55;15.43;;;9.93;;
55700;SDS011;41604;43.142;20.512;2024-03-08T03:15:21;22.27;;;15.40;;
55700;SDS011;41604;43.142;20.512;2024-03-08T03:17:50;25.00;;;16.42;;
55700;SDS011;41604;43.142;20.512;2024-03-08T03:20:17;23.83;;;15.48;;
55700;SDS011;41604;43.142;20.512;2024-03-08T03:22:52;20.08;;;12.65;;
55700;SDS011;41604;43.142;20.512;2024-03-08T03:25:18;18.17;;;10.80;;
55700;SDS011;41604;43.142;20.512;2024-03-08T03:27:50;15.88;;;10.52;;
55700;SDS011;41604;43.142;20.512;2024-03-08T03:30:17;18.98;;;11.30;;
55700;SDS011;41604;43.142;20.512;2024-03-08T03:32:49;14.73;;;10.07;;
55700;SDS011;41604;43.142;20.512;2024-03-08T03:35:18;16.33;;;10.38;;
55700;SDS011;41604;43.142;20.512;2024-03-08T03:37:45;14.43;;;9.93;;
55700;SDS011;41604;43.142;20.512;2024-03-08T03:40:28;22.48;;;13.50;;
55700;SDS011;41604;43.142;20.512;2024-03-08T03:42:55;17.75;;;10.57;;
55700;SDS011;41604;43.142;20.512;2024-03-08T03:45:21;13.98;;;9.10;;
55700;SDS011;41604;43.142;20.512;2024-03-08T03:47:47;15.98;;;9.65;;
55700;SDS011;41604;43.142;20.512;2024-03-08T03:50:13;18.65;;;11.57;;
55700;SDS011;41604;43.142;20.512;2024-03-08T03:52:39;16.90;;;11.40;;
55700;SDS011;41604;43.142;20.512;2024-03-08T03:55:04;14.15;;;9.30;;
55700;SDS011;41604;43.142;20.512;2024-03-08T03:57:31;12.52;;;8.05;;
55700;SDS011;41604;43.142;20.512;2024-03-08T03:59:57;14.38;;;9.55;;
55700;SDS011;41604;43.142;20.512;2024-03-08T04:02:27;11.95;;;8.43;;
55700;SDS011;41604;43.142;20.512;2024-03-08T04:04:53;13.40;;;9.23;;
55700;SDS011;41604;43.142;20.512;2024-03-08T04:07:22;12.63;;;9.02;;
55700;SDS011;41604;43.142;20.512;2024-03-08T04:09:48;13.07;;;8.55;;
55700;SDS011;41604;43.142;20.512;2024-03-08T04:12:14;13.10;;;8.88;;
55700;SDS011;41604;43.142;20.512;2024-03-08T04:14:41;13.15;;;8.80;;
55700;SDS011;41604;43.142;20.512;2024-03-08T04:17:07;15.13;;;9.90;;
55700;SDS011;41604;43.142;20.512;2024-03-08T04:19:37;15.05;;;9.65;;
55700;SDS011;41604;43.142;20.512;2024-03-08T04:22:05;13.77;;;9.77;;
55700;SDS011;41604;43.142;20.512;2024-03-08T04:24:32;17.27;;;10.27;;
55700;SDS011;41604;43.142;20.512;2024-03-08T04:26:59;15.80;;;10.38;;
55700;SDS011;41604;43.142;20.512;2024-03-08T04:29:24;16.60;;;10.25;;
55700;SDS011;41604;43.142;20.512;2024-03-08T04:31:51;14.25;;;9.75;;
55700;SDS011;41604;43.142;20.512;2024-03-08T04:34:20;17.75;;;10.65;;
55700;SDS011;41604;43.142;20.512;2024-03-08T04:36:47;16.50;;;10.23;;
55700;SDS011;41604;43.142;20.512;2024-03-08T04:39:13;14.48;;;10.57;;
55700;SDS011;41604;43.142;20.512;2024-03-08T04:41:40;16.27;;;11.10;;
55700;SDS011;41604;43.142;20.512;2024-03-08T04:44:11;15.07;;;10.43;;
55700;SDS011;41604;43.142;20.512;2024-03-08T04:46:38;17.15;;;11.88;;
55700;SDS011;41604;43.142;20.512;2024-03-08T04:49:03;21.00;;;12.07;;
55700;SDS011;41604;43.142;20.512;2024-03-08T04:51:29;21.98;;;13.85;;
55700;SDS011;41604;43.142;20.512;2024-03-08T04:53:55;25.50;;;15.50;;
55700;SDS011;41604;43.142;20.512;2024-03-08T04:56:22;21.02;;;15.23;;
55700;SDS011;41604;43.142;20.512;2024-03-08T04:58:48;19.95;;;13.00;;
55700;SDS011;41604;43.142;20.512;2024-03-08T05:01:14;30.05;;;21.30;;
55700;SDS011;41604;43.142;20.512;2024-03-08T05:03:40;28.13;;;20.50;;
55700;SDS011;41604;43.142;20.512;2024-03-08T05:06:06;21.58;;;16.38;;
55700;SDS011;41604;43.142;20.512;2024-03-08T05:08:32;24.55;;;14.93;;
55700;SDS011;41604;43.142;20.512;2024-03-08T05:10:58;29.13;;;16.80;;
55700;SDS011;41604;43.142;20.512;2024-03-08T05:13:27;23.73;;;15.82;;
55700;SDS011;41604;43.142;20.512;2024-03-08T05:15:53;25.02;;;15.45;;
55700;SDS011;41604;43.142;20.512;2024-03-08T05:18:19;21.23;;;15.20;;
55700;SDS011;41604;43.142;20.512;2024-03-08T05:20:47;20.23;;;14.80;;
55700;SDS011;41604;43.142;20.512;2024-03-08T05:23:12;22.20;;;15.93;;
55700;SDS011;41604;43.142;20.512;2024-03-08T05:25:38;96.55;;;63.78;;
55700;SDS011;41604;43.142;20.512;2024-03-08T05:28:04;52.17;;;35.75;;
55700;SDS011;41604;43.142;20.512;2024-03-08T05:30:30;52.45;;;36.08;;
55700;SDS011;41604;43.142;20.512;2024-03-08T05:32:57;28.75;;;21.17;;
55700;SDS011;41604;43.142;20.512;2024-03-08T05:35:22;23.15;;;15.30;;
55700;SDS011;41604;43.142;20.512;2024-03-08T05:37:49;25.90;;;17.27;;
55700;SDS011;41604;43.142;20.512;2024-03-08T05:40:15;21.00;;;15.35;;
55700;SDS011;41604;43.142;20.512;2024-03-08T05:42:41;23.63;;;16.50;;
55700;SDS011;41604;43.142;20.512;2024-03-08T05:45:07;20.90;;;14.70;;
55700;SDS011;41604;43.142;20.512;2024-03-08T05:47:35;18.52;;;13.68;;
55700;SDS011;41604;43.142;20.512;2024-03-08T05:50:00;23.55;;;15.75;;
55700;SDS011;41604;43.142;20.512;2024-03-08T05:52:27;22.63;;;16.77;;
55700;SDS011;41604;43.142;20.512;2024-03-08T05:54:53;30.52;;;23.00;;
55700;SDS011;41604;43.142;20.512;2024-03-08T05:57:18;127.15;;;56.65;;
55700;SDS011;41604;43.142;20.512;2024-03-08T05:59:44;40.05;;;24.63;;
55700;SDS011;41604;43.142;20.512;2024-03-08T06:02:10;28.88;;;19.98;;
55700;SDS011;41604;43.142;20.512;2024-03-08T06:04:36;23.88;;;18.77;;
55700;SDS011;41604;43.142;20.512;2024-03-08T06:07:03;25.52;;;17.55;;
55700;SDS011;41604;43.142;20.512;2024-03-08T06:09:29;25.67;;;18.00;;
55700;SDS011;41604;43.142;20.512;2024-03-08T06:11:55;26.27;;;18.48;;
55700;SDS011;41604;43.142;20.512;2024-03-08T06:14:22;25.10;;;18.38;;
55700;SDS011;41604;43.142;20.512;2024-03-08T06:16:48;24.58;;;19.10;;
55700;SDS011;41604;43.142;20.512;2024-03-08T06:19:17;27.10;;;21.42;;
55700;SDS011;41604;43.142;20.512;2024-03-08T06:21:43;24.08;;;19.38;;
55700;SDS011;41604;43.142;20.512;2024-03-08T06:24:08;26.35;;;18.77;;
55700;SDS011;41604;43.142;20.512;2024-03-08T06:26:34;25.25;;;18.40;;
55700;SDS011;41604;43.142;20.512;2024-03-08T06:29:02;25.92;;;20.35;;
55700;SDS011;41604;43.142;20.512;2024-03-08T06:31:31;27.98;;;20.52;;
55700;SDS011;41604;43.142;20.512;2024-03-08T06:33:58;27.92;;;20.80;;
55700;SDS011;41604;43.142;20.512;2024-03-08T06:36:23;29.33;;;22.73;;
55700;SDS011;41604;43.142;20.512;2024-03-08T06:38:49;30.30;;;23.20;;
55700;SDS011;41604;43.142;20.512;2024-03-08T06:41:16;39.30;;;26.98;;
55700;SDS011;41604;43.142;20.512;2024-03-08T06:43:42;36.65;;;27.25;;
55700;SDS011;41604;43.142;20.512;2024-03-08T06:46:09;36.50;;;26.77;;
55700;SDS011;41604;43.142;20.512;2024-03-08T06:48:37;38.22;;;27.00;;
55700;SDS011;41604;43.142;20.512;2024-03-08T06:51:04;47.50;;;31.20;;
55700;SDS011;41604;43.142;20.512;2024-03-08T06:53:30;50.33;;;33.83;;
55700;SDS011;41604;43.142;20.512;2024-03-08T06:55:56;49.97;;;34.88;;
55700;SDS011;41604;43.142;20.512;2024-03-08T06:58:23;57.15;;;38.38;;
55700;SDS011;41604;43.142;20.512;2024-03-08T07:00:49;57.05;;;38.95;;
55700;SDS011;41604;43.142;20.512;2024-03-08T07:03:17;56.58;;;38.47;;
55700;SDS011;41604;43.142;20.512;2024-03-08T07:05:43;61.22;;;38.47;;
55700;SDS011;41604;43.142;20.512;2024-03-08T07:08:09;53.05;;;37.15;;
55700;SDS011;41604;43.142;20.512;2024-03-08T07:10:36;50.85;;;36.30;;
55700;SDS011;41604;43.142;20.512;2024-03-08T07:13:02;49.25;;;36.58;;
55700;SDS011;41604;43.142;20.512;2024-03-08T07:15:28;54.67;;;37.40;;
55700;SDS011;41604;43.142;20.512;2024-03-08T07:17:54;48.72;;;35.85;;
55700;SDS011;41604;43.142;20.512;2024-03-08T07:20:21;52.40;;;35.72;;
55700;SDS011;41604;43.142;20.512;2024-03-08T07:22:47;58.17;;;40.17;;
55700;SDS011;41604;43.142;20.512;2024-03-08T07:25:13;58.00;;;37.65;;
55700;SDS011;41604;43.142;20.512;2024-03-08T07:27:50;57.13;;;37.42;;
55700;SDS011;41604;43.142;20.512;2024-03-08T07:30:17;48.35;;;33.10;;
55700;SDS011;41604;43.142;20.512;2024-03-08T07:33:02;53.25;;;33.70;;
55700;SDS011;41604;43.142;20.512;2024-03-08T07:35:28;54.17;;;33.20;;
55700;SDS011;41604;43.142;20.512;2024-03-08T07:37:54;45.03;;;31.58;;
55700;SDS011;41604;43.142;20.512;2024-03-08T07:40:21;67.50;;;42.17;;
55700;SDS011;41604;43.142;20.512;2024-03-08T07:42:48;78.35;;;54.15;;
55700;SDS011;41604;43.142;20.512;2024-03-08T07:45:15;29.90;;;23.42;;
55700;SDS011;41604;43.142;20.512;2024-03-08T07:47:41;29.92;;;21.38;;
55700;SDS011;41604;43.142;20.512;2024-03-08T07:50:07;35.60;;;23.55;;
55700;SDS011;41604;43.142;20.512;2024-03-08T07:52:34;27.13;;;19.02;;
55700;SDS011;41604;43.142;20.512;2024-03-08T07:55:01;24.70;;;17.92;;
55700;SDS011;41604;43.142;20.512;2024-03-08T07:57:29;31.15;;;21.30;;
55700;SDS011;41604;43.142;20.512;2024-03-08T07:59:55;26.67;;;17.85;;
55700;SDS011;41604;43.142;20.512;2024-03-08T08:02:21;25.90;;;15.85;;
55700;SDS011;41604;43.142;20.512;2024-03-08T08:04:47;22.10;;;15.63;;
55700;SDS011;41604;43.142;20.512;2024-03-08T08:07:13;18.20;;;13.32;;
55700;SDS011;41604;43.142;20.512;2024-03-08T08:09:39;15.88;;;12.18;;
55700;SDS011;41604;43.142;20.512;2024-03-08T08:12:10;21.05;;;14.00;;
55700;SDS011;41604;43.142;20.512;2024-03-08T08:14:38;11.30;;;7.00;;
55700;SDS011;41604;43.142;20.512;2024-03-08T08:17:04;17.95;;;12.05;;
55700;SDS011;41604;43.142;20.512;2024-03-08T08:19:33;14.05;;;9.07;;
55700;SDS011;41604;43.142;20.512;2024-03-08T08:22:00;9.48;;;7.35;;
55700;SDS011;41604;43.142;20.512;2024-03-08T08:24:29;9.85;;;6.60;;
55700;SDS011;41604;43.142;20.512;2024-03-08T08:26:55;8.93;;;5.70;;
55700;SDS011;41604;43.142;20.512;2024-03-08T08:29:21;5.63;;;3.90;;
55700;SDS011;41604;43.142;20.512;2024-03-08T08:31:48;8.05;;;6.22;;
55700;SDS011;41604;43.142;20.512;2024-03-08T08:34:15;8.77;;;5.95;;
55700;SDS011;41604;43.142;20.512;2024-03-08T08:36:44;8.43;;;6.47;;
55700;SDS011;41604;43.142;20.512;2024-03-08T08:39:10;14.23;;;7.00;;
55700;SDS011;41604;43.142;20.512;2024-03-08T08:41:39;11.68;;;8.05;;
55700;SDS011;41604;43.142;20.512;2024-03-08T08:44:06;11.35;;;7.85;;
55700;SDS011;41604;43.142;20.512;2024-03-08T08:46:35;12.07;;;7.95;;
55700;SDS011;41604;43.142;20.512;2024-03-08T08:49:03;8.48;;;6.22;;
55700;SDS011;41604;43.142;20.512;2024-03-08T08:51:30;8.07;;;4.70;;
55700;SDS011;41604;43.142;20.512;2024-03-08T08:53:58;6.88;;;4.85;;
55700;SDS011;41604;43.142;20.512;2024-03-08T08:56:24;9.13;;;7.15;;
55700;SDS011;41604;43.142;20.512;2024-03-08T08:58:51;6.38;;;4.68;;
55700;SDS011;41604;43.142;20.512;2024-03-08T09:01:18;9.00;;;6.53;;
55700;SDS011;41604;43.142;20.512;2024-03-08T09:03:45;8.75;;;7.00;;
55700;SDS011;41604;43.142;20.512;2024-03-08T09:06:15;8.27;;;4.85;;
55700;SDS011;41604;43.142;20.512;2024-03-08T09:08:42;5.88;;;4.50;;
55700;SDS011;41604;43.142;20.512;2024-03-08T09:11:09;7.20;;;5.32;;
55700;SDS011;41604;43.142;20.512;2024-03-08T09:13:35;8.25;;;5.80;;
55700;SDS011;41604;43.142;20.512;2024-03-08T09:16:04;6.47;;;5.00;;
55700;SDS011;41604;43.142;20.512;2024-03-08T09:18:31;6.88;;;5.05;;
55700;SDS011;41604;43.142;20.512;2024-03-08T09:20:57;6.55;;;4.90;;
55700;SDS011;41604;43.142;20.512;2024-03-08T09:23:24;6.03;;;4.50;;
55700;SDS011;41604;43.142;20.512;2024-03-08T09:25:55;6.75;;;4.70;;
55700;SDS011;41604;43.142;20.512;2024-03-08T09:28:23;7.03;;;5.68;;
55700;SDS011;41604;43.142;20.512;2024-03-08T09:30:50;10.40;;;5.43;;
55700;SDS011;41604;43.142;20.512;2024-03-08T09:33:16;8.20;;;5.20;;
55700;SDS011;41604;43.142;20.512;2024-03-08T09:35:46;9.88;;;5.15;;
55700;SDS011;41604;43.142;20.512;2024-03-08T09:38:13;4.22;;;3.42;;
55700;SDS011;41604;43.142;20.512;2024-03-08T09:40:43;4.03;;;3.03;;
55700;SDS011;41604;43.142;20.512;2024-03-08T09:43:12;4.72;;;3.30;;
55700;SDS011;41604;43.142;20.512;2024-03-08T09:45:38;3.80;;;3.00;;
55700;SDS011;41604;43.142;20.512;2024-03-08T09:48:15;6.47;;;3.33;;
55700;SDS011;41604;43.142;20.512;2024-03-08T09:50:44;4.22;;;2.90;;
55700;SDS011;41604;43.142;20.512;2024-03-08T09:53:13;6.43;;;3.80;;
55700;SDS011;41604;43.142;20.512;2024-03-08T09:55:39;6.10;;;3.47;;
55700;SDS011;41604;43.142;20.512;2024-03-08T09:58:07;6.25;;;3.97;;
55700;SDS011;41604;43.142;20.512;2024-03-08T10:00:56;6.22;;;3.38;;
55700;SDS011;41604;43.142;20.512;2024-03-08T10:03:23;3.83;;;2.80;;
55700;SDS011;41604;43.142;20.512;2024-03-08T10:05:51;5.22;;;3.60;;
55700;SDS011;41604;43.142;20.512;2024-03-08T10:08:17;4.57;;;3.22;;
55700;SDS011;41604;43.142;20.512;2024-03-08T10:10:43;4.65;;;3.25;;
55700;SDS011;41604;43.142;20.512;2024-03-08T10:13:09;5.63;;;3.00;;
55700;SDS011;41604;43.142;20.512;2024-03-08T10:15:37;6.32;;;3.70;;
55700;SDS011;41604;43.142;20.512;2024-03-08T10:18:05;5.32;;;3.38;;
55700;SDS011;41604;43.142;20.512;2024-03-08T10:20:32;5.90;;;4.13;;
55700;SDS011;41604;43.142;20.512;2024-03-08T10:23:04;5.63;;;3.30;;
55700;SDS011;41604;43.142;20.512;2024-03-08T10:25:31;3.25;;;2.58;;
55700;SDS011;41604;43.142;20.512;2024-03-08T10:27:59;4.07;;;3.05;;
55700;SDS011;41604;43.142;20.512;2024-03-08T10:30:24;4.35;;;2.95;;
55700;SDS011;41604;43.142;20.512;2024-03-08T10:32:50;3.63;;;2.72;;
55700;SDS011;41604;43.142;20.512;2024-03-08T10:35:17;4.10;;;2.60;;
55700;SDS011;41604;43.142;20.512;2024-03-08T10:48:00;3.90;;;2.95;;
55700;SDS011;41604;43.142;20.512;2024-03-08T10:50:48;6.20;;;3.25;;
55700;SDS011;41604;43.142;20.512;2024-03-08T10:53:18;8.23;;;5.25;;
55700;SDS011;41604;43.142;20.512;2024-03-08T10:55:46;16.95;;;11.77;;
55700;SDS011;41604;43.142;20.512;2024-03-08T10:58:13;10.63;;;7.25;;
55700;SDS011;41604;43.142;20.512;2024-03-08T11:00:40;17.70;;;9.00;;
55700;SDS011;41604;43.142;20.512;2024-03-08T11:03:07;7.40;;;4.75;;
55700;SDS011;41604;43.142;20.512;2024-03-08T11:05:54;6.60;;;3.67;;
55700;SDS011;41604;43.142;20.512;2024-03-08T11:08:22;6.03;;;3.20;;
55700;SDS011;41604;43.142;20.512;2024-03-08T11:10:54;12.45;;;3.22;;
55700;SDS011;41604;43.142;20.512;2024-03-08T11:13:33;5.18;;;3.30;;
55700;SDS011;41604;43.142;20.512;2024-03-08T11:16:00;6.00;;;3.83;;
55700;SDS011;41604;43.142;20.512;2024-03-08T11:18:32;6.40;;;3.80;;
55700;SDS011;41604;43.142;20.512;2024-03-08T11:21:03;6.68;;;4.32;;
55700;SDS011;41604;43.142;20.512;2024-03-08T11:23:38;6.38;;;4.07;;
55700;SDS011;41604;43.142;20.512;2024-03-08T11:26:19;10.02;;;4.15;;
55700;SDS011;41604;43.142;20.512;2024-03-08T11:28:45;5.78;;;3.80;;
55700;SDS011;41604;43.142;20.512;2024-03-08T11:33:39;6.18;;;3.90;;
55700;SDS011;41604;43.142;20.512;2024-03-08T11:36:22;6.80;;;3.95;;
55700;SDS011;41604;43.142;20.512;2024-03-08T11:38:49;5.68;;;4.00;;
55700;SDS011;41604;43.142;20.512;2024-03-08T11:41:18;6.53;;;3.80;;
55700;SDS011;41604;43.142;20.512;2024-03-08T11:43:48;6.07;;;4.38;;
55700;SDS011;41604;43.142;20.512;2024-03-08T11:46:15;5.47;;;4.15;;
55700;SDS011;41604;43.142;20.512;2024-03-08T11:48:42;8.93;;;5.20;;
55700;SDS011;41604;43.142;20.512;2024-03-08T11:51:10;9.45;;;5.10;;
55700;SDS011;41604;43.142;20.512;2024-03-08T11:53:37;8.30;;;5.18;;
55700;SDS011;41604;43.142;20.512;2024-03-08T11:58:32;6.95;;;5.00;;
55700;SDS011;41604;43.142;20.512;2024-03-08T12:01:07;8.23;;;4.93;;
55700;SDS011;41604;43.142;20.512;2024-03-08T12:03:42;5.97;;;3.58;;
55700;SDS011;41604;43.142;20.512;2024-03-08T12:06:09;10.98;;;6.60;;
55700;SDS011;41604;43.142;20.512;2024-03-08T12:08:38;10.30;;;5.45;;
55700;SDS011;41604;43.142;20.512;2024-03-08T12:11:04;9.05;;;4.60;;
55700;SDS011;41604;43.142;20.512;2024-03-08T12:13:31;10.52;;;4.20;;
55700;SDS011;41604;43.142;20.512;2024-03-08T12:15:59;8.75;;;3.60;;
55700;SDS011;41604;43.142;20.512;2024-03-08T12:18:30;6.32;;;3.60;;
55700;SDS011;41604;43.142;20.512;2024-03-08T12:21:08;5.68;;;3.67;;
55700;SDS011;41604;43.142;20.512;2024-03-08T12:23:36;7.22;;;3.13;;
55700;SDS011;41604;43.142;20.512;2024-03-08T12:26:17;17.75;;;7.63;;
55700;SDS011;41604;43.142;20.512;2024-03-08T12:28:48;10.68;;;4.57;;
55700;SDS011;41604;43.142;20.512;2024-03-08T12:31:14;5.80;;;3.35;;
55700;SDS011;41604;43.142;20.512;2024-03-08T12:33:50;9.07;;;5.20;;
55700;SDS011;41604;43.142;20.512;2024-03-08T12:36:18;12.20;;;5.63;;
55700;SDS011;41604;43.142;20.512;2024-03-08T12:38:46;9.70;;;4.85;;
55700;SDS011;41604;43.142;20.512;2024-03-08T12:41:15;3.88;;;2.88;;
55700;SDS011;41604;43.142;20.512;2024-03-08T12:43:44;6.65;;;2.80;;
55700;SDS011;41604;43.142;20.512;2024-03-08T12:46:19;5.72;;;3.40;;
55700;SDS011;41604;43.142;20.512;2024-03-08T12:48:46;9.32;;;3.78;;
55700;SDS011;41604;43.142;20.512;2024-03-08T12:51:16;11.18;;;4.20;;
55700;SDS011;41604;43.142;20.512;2024-03-08T12:53:43;6.70;;;3.42;;
55700;SDS011;41604;43.142;20.512;2024-03-08T12:56:10;8.25;;;4.40;;
55700;SDS011;41604;43.142;20.512;2024-03-08T12:58:37;9.05;;;3.28;;
55700;SDS011;41604;43.142;20.512;2024-03-08T13:01:06;6.85;;;3.58;;
55700;SDS011;41604;43.142;20.512;2024-03-08T13:03:35;4.25;;;3.08;;
55700;SDS011;41604;43.142;20.512;2024-03-08T13:06:05;10.02;;;3.05;;
55700;SDS011;41604;43.142;20.512;2024-03-08T13:08:37;8.52;;;3.90;;
55700;SDS011;41604;43.142;20.512;2024-03-08T13:11:04;9.95;;;4.20;;
55700;SDS011;41604;43.142;20.512;2024-03-08T13:13:32;7.05;;;4.47;;
55700;SDS011;41604;43.142;20.512;2024-03-08T13:16:02;10.40;;;4.57;;
55700;SDS011;41604;43.142;20.512;2024-03-08T13:18:28;11.93;;;5.20;;
55700;SDS011;41604;43.142;20.512;2024-03-08T13:20:54;10.85;;;5.18;;
55700;SDS011;41604;43.142;20.512;2024-03-08T13:23:22;19.08;;;8.00;;
55700;SDS011;41604;43.142;20.512;2024-03-08T13:25:48;12.13;;;5.47;;
55700;SDS011;41604;43.142;20.512;2024-03-08T13:28:14;8.57;;;5.93;;
55700;SDS011;41604;43.142;20.512;2024-03-08T13:30:42;8.68;;;5.45;;
55700;SDS011;41604;43.142;20.512;2024-03-08T13:33:09;8.60;;;5.20;;
55700;SDS011;41604;43.142;20.512;2024-03-08T13:35:38;8.95;;;5.30;;
55700;SDS011;41604;43.142;20.512;2024-03-08T13:38:05;10.40;;;5.70;;
55700;SDS011;41604;43.142;20.512;2024-03-08T13:40:34;7.32;;;4.53;;
55700;SDS011;41604;43.142;20.512;2024-03-08T13:43:00;7.03;;;4.25;;
55700;SDS011;41604;43.142;20.512;2024-03-08T13:45:26;6.97;;;4.55;;
55700;SDS011;41604;43.142;20.512;2024-03-08T13:47:55;10.82;;;3.65;;
55700;SDS011;41604;43.142;20.512;2024-03-08T13:50:21;4.95;;;3.45;;
55700;SDS011;41604;43.142;20.512;2024-03-08T13:52:50;7.38;;;3.83;;
55700;SDS011;41604;43.142;20.512;2024-03-08T13:57:47;7.35;;;3.17;;
55700;SDS011;41604;43.142;20.512;2024-03-08T14:00:19;8.85;;;3.15;;
55700;SDS011;41604;43.142;20.512;2024-03-08T14:03:01;7.40;;;3.42;;
55700;SDS011;41604;43.142;20.512;2024-03-08T14:05:31;9.85;;;3.90;;
55700;SDS011;41604;43.142;20.512;2024-03-08T14:08:01;9.27;;;3.42;;
55700;SDS011;41604;43.142;20.512;2024-03-08T14:10:32;3.53;;;2.60;;
55700;SDS011;41604;43.142;20.512;2024-03-08T14:13:02;6.60;;;3.08;;
55700;SDS011;41604;43.142;20.512;2024-03-08T14:15:33;5.80;;;3.17;;
55700;SDS011;41604;43.142;20.512;2024-03-08T14:17:59;5.03;;;3.08;;
55700;SDS011;41604;43.142;20.512;2024-03-08T14:20:32;7.80;;;4.13;;
55700;SDS011;41604;43.142;20.512;2024-03-08T14:23:07;6.03;;;3.50;;
55700;SDS011;41604;43.142;20.512;2024-03-08T14:25:37;10.23;;;3.35;;
55700;SDS011;41604;43.142;20.512;2024-03-08T14:28:03;10.23;;;5.20;;
55700;SDS011;41604;43.142;20.512;2024-03-08T14:30:32;9.68;;;5.95;;
55700;SDS011;41604;43.142;20.512;2024-03-08T14:33:06;12.02;;;5.38;;
55700;SDS011;41604;43.142;20.512;2024-03-08T14:35:36;15.20;;;5.95;;
55700;SDS011;41604;43.142;20.512;2024-03-08T14:38:02;9.43;;;5.22;;
55700;SDS011;41604;43.142;20.512;2024-03-08T14:40:33;9.13;;;5.53;;